KOFF

Offutt AFB Airport

Omaha, Nebraska, USA
TAF KOFF 161800Z 1618/1724 36006KT 9999 FEW030 QNH3004INS BECMG 1720/1721 09009KT 9999 SCT045 BKN180 QNH3003INS TX30/1621Z TN18/1708Z
Issued Valid From Valid To
Jul-16 @ 18:00 UTC
(2 hours ago)
Jul-16 @ 18:00 UTC
(2 hours ago)
Jul-18 @ 00:00 UTC
(-1 days ago)
Jul-16 @ 18:00 to Jul-17 @ 20:00
TAF KOFF 161800Z 1618/1724 36006KT 9999 FEW030 QNH3004INS
Wind Visibility Clouds Readings
360° at 6 knots Greater than 6 miles
  • Few at 3,000' AGL
Altimeter 30.03" Hg
Pressure 1017 hPa
Becoming Jul-17 @ 20:00 to Jul-18 @ 00:00
BECMG 1720/1721 09009KT 9999 SCT045 BKN180 QNH3003INS TX30/1621Z TN18/1708Z
Wind Visibility Clouds Readings
90° at 9 knots Greater than 6 miles
  • Scattered at 4,500' AGL
  • Broken at 18,000' AGL
Altimeter 30.03" Hg
Pressure 1017 hPa
TAF KOFF 161800Z 1618/1724 36006KT 9999 FEW030 QNH3004INS BECMG 1720/1721 09009KT 9999 SCT045 BKN180 QNH3003INS TX30/1621Z TN18/1708Z
Issued Jul-16 @ 18:00 UTC
(2 hours ago)
Valid From Jul-16 @ 18:00 UTC
(2 hours ago)
Valid To Jul-18 @ 00:00 UTC
(-1 days ago)
Jul-16 @ 18:00 - Jul-17 @ 20:00
Wind Visibility
360° at 6 knots Greater than 6 miles
Clouds
  • Few at 3,000' AGL
Becoming Jul-17 @ 20:00 - Jul-18 @ 00:00
Wind Visibility
90° at 9 knots Greater than 6 miles
Clouds
  • Scattered at 4,500' AGL
  • Broken at 18,000' AGL